Time;durP1;ratioP1;P1;durP2;ratioP2;P2;SDS_P1;SDS_P2;PMS_P1;PMS_P2;Temp;Humidity;BMP_temperature;BMP_pressure;BME280_temperature;BME280_humidity;BME280_pressure;Samples;Min_cycle;Max_cycle;Signal;HPM_P1;HPM_P2
2021/04/22 00:01:15;;;;;;;2.78;2.60;;;10.80;99.90;;;;;;4977469;28;20034;-72
2021/04/22 00:03:40;;;;;;;2.63;2.42;;;10.80;99.90;;;;;;4976991;28;20027;-72
2021/04/22 00:06:06;;;;;;;5.43;2.45;;;10.90;99.90;;;;;;4967470;28;20054;-72
2021/04/22 00:08:32;;;;;;;4.00;2.60;;;10.90;99.90;;;;;;4964475;28;20065;-72
2021/04/22 00:10:58;;;;;;;4.32;2.63;;;10.70;99.90;;;;;;4972169;28;20031;-72
2021/04/22 00:13:27;;;;;;;2.45;2.25;;;10.70;99.90;;;;;;4967551;28;20016;-72
2021/04/22 00:15:54;;;;;;;5.10;2.40;;;10.70;99.90;;;;;;4969891;28;20027;-72
2021/04/22 00:18:20;;;;;;;3.45;2.40;;;10.80;99.90;;;;;;4967503;28;20074;-72
2021/04/22 00:20:46;;;;;;;3.05;2.40;;;10.50;99.90;;;;;;4971327;28;20035;-72
2021/04/22 00:23:14;;;;;;;2.38;2.17;;;10.70;99.90;;;;;;4980858;28;20054;-72
2021/04/22 00:25:43;;;;;;;3.13;2.50;;;10.70;99.90;;;;;;4975110;28;20110;-73
2021/04/22 00:28:10;;;;;;;4.20;2.30;;;10.80;99.90;;;;;;4982455;28;20038;-73
2021/04/22 00:30:37;;;;;;;2.75;2.53;;;10.80;99.90;;;;;;4975633;28;20395;-70
2021/04/22 00:33:05;;;;;;;3.22;2.78;;;10.60;99.90;;;;;;4982780;28;20026;-73
2021/04/22 00:35:31;;;;;;;5.43;2.60;;;10.70;99.90;;;;;;4975399;28;20031;-71
2021/04/22 00:37:56;;;;;;;3.83;2.33;;;10.60;99.90;;;;;;4983929;28;20426;-73
2021/04/22 00:40:26;;;;;;;4.60;2.42;;;10.70;99.90;;;;;;4975700;28;20038;-73
2021/04/22 00:42:52;;;;;;;3.50;2.50;;;10.80;99.90;;;;;;4971063;28;20038;-71
2021/04/22 00:45:19;;;;;;;2.50;2.30;;;10.80;99.90;;;;;;4972905;28;20031;-73
2021/04/22 00:47:45;;;;;;;2.80;2.35;;;10.60;99.90;;;;;;4977334;28;20106;-73
2021/04/22 00:50:18;;;;;;;3.40;2.75;;;10.40;99.90;;;;;;4972826;28;20106;-73
2021/04/22 00:52:44;;;;;;;2.55;2.35;;;10.40;99.90;;;;;;4976464;28;20361;-73
2021/04/22 00:55:11;;;;;;;2.28;2.08;;;10.50;99.90;;;;;;4973504;28;20088;-73
2021/04/22 00:57:37;;;;;;;2.65;2.08;;;10.50;99.90;;;;;;4978364;28;20031;-73
2021/04/22 01:00:10;;;;;;;2.47;2.20;;;10.50;99.90;;;;;;4974100;28;20172;-73
2021/04/22 01:02:37;;;;;;;3.33;2.22;;;10.50;99.90;;;;;;4960515;28;20066;-73
2021/04/22 01:05:17;;;;;;;2.95;1.77;;;10.60;99.90;;;;;;4972462;28;20512;-73
2021/04/22 01:07:44;;;;;;;2.55;2.28;;;10.70;99.90;;;;;;4968828;28;20383;-73
2021/04/22 01:10:12;;;;;;;2.40;2.20;;;10.60;99.90;;;;;;4971777;28;20031;-73
2021/04/22 01:12:38;;;;;;;2.72;2.00;;;10.60;99.90;;;;;;4971811;28;20034;-73
2021/04/22 01:15:16;;;;;;;3.72;1.85;;;10.70;99.90;;;;;;4972685;28;20026;-73
2021/04/22 01:17:42;;;;;;;2.85;2.20;;;10.60;99.90;;;;;;4965358;28;20027;-73
2021/04/22 01:20:10;;;;;;;2.85;2.15;;;10.50;99.90;;;;;;4972437;28;20089;-73
2021/04/22 01:22:36;;;;;;;1.80;1.70;;;10.60;99.90;;;;;;4977130;28;20055;-73
2021/04/22 01:25:06;;;;;;;2.40;2.20;;;10.60;99.90;;;;;;4974188;28;20037;-73
2021/04/22 01:27:31;;;;;;;2.80;2.00;;;10.60;99.90;;;;;;4978992;28;20023;-73
2021/04/22 01:29:57;;;;;;;2.30;2.15;;;10.50;99.90;;;;;;4973873;28;20061;-74
2021/04/22 01:32:23;;;;;;;5.72;2.20;;;10.30;99.90;;;;;;4979428;28;20412;-74
2021/04/22 01:34:49;;;;;;;2.40;2.20;;;10.50;99.90;;;;;;4972494;28;20058;-73
2021/04/22 01:37:15;;;;;;;2.22;2.00;;;10.40;99.90;;;;;;4968550;28;20026;-73
2021/04/22 01:39:40;;;;;;;2.58;2.10;;;10.40;99.90;;;;;;4971392;28;20070;-73
2021/04/22 01:42:06;;;;;;;2.28;2.08;;;10.60;99.90;;;;;;4980622;28;20074;-73
2021/04/22 01:44:32;;;;;;;2.50;2.30;;;10.40;99.90;;;;;;4970825;28;20035;-73
2021/04/22 01:46:58;;;;;;;2.95;2.30;;;10.20;99.90;;;;;;4982739;28;20029;-73
2021/04/22 01:49:23;;;;;;;3.55;2.35;;;10.20;99.90;;;;;;4975708;28;20026;-72
2021/04/22 01:51:49;;;;;;;2.50;2.30;;;10.30;99.90;;;;;;4975622;28;20023;-73
2021/04/22 01:54:14;;;;;;;3.65;2.13;;;10.20;99.90;;;;;;4973621;28;20026;-72
2021/04/22 01:56:40;;;;;;;5.00;1.88;;;10.30;99.90;;;;;;4978095;28;20019;-72
2021/04/22 01:59:06;;;;;;;3.10;2.28;;;10.30;99.90;;;;;;4972944;28;20038;-72
2021/04/22 02:01:31;;;;;;;4.25;2.17;;;10.20;99.90;;;;;;4975550;28;20493;-73
2021/04/22 02:03:57;;;;;;;2.30;2.10;;;10.20;99.90;;;;;;4973613;28;20050;-72
2021/04/22 02:06:23;;;;;;;2.47;2.28;;;10.30;99.90;;;;;;4983416;28;20073;-72
2021/04/22 02:08:48;;;;;;;2.92;2.40;;;10.10;99.90;;;;;;4972645;28;20019;-72
2021/04/22 02:11:14;;;;;;;3.78;2.35;;;10.30;99.90;;;;;;4984575;28;20162;-73
2021/04/22 02:13:40;;;;;;;4.43;2.38;;;10.30;99.90;;;;;;4973008;28;20031;-73
2021/04/22 02:16:06;;;;;;;2.88;2.00;;;10.10;99.90;;;;;;4984358;28;20037;-72
2021/04/22 02:18:31;;;;;;;2.45;1.98;;;10.30;99.90;;;;;;4973350;28;20590;-73
2021/04/22 02:20:57;;;;;;;2.08;1.85;;;10.30;99.90;;;;;;4983110;28;20038;-72
2021/04/22 02:23:25;;;;;;;3.22;2.20;;;10.10;99.90;;;;;;4974699;28;20082;-72
2021/04/22 02:25:51;;;;;;;2.28;2.00;;;10.30;99.90;;;;;;4978009;28;20049;-72
2021/04/22 02:28:17;;;;;;;2.35;1.90;;;10.20;99.90;;;;;;4972947;28;20066;-73
2021/04/22 02:30:44;;;;;;;7.25;2.13;;;10.30;99.90;;;;;;4977802;28;20029;-72
2021/04/22 02:33:13;;;;;;;1.95;1.85;;;10.10;99.90;;;;;;4979396;28;20035;-73
2021/04/22 02:35:41;;;;;;;2.25;2.05;;;10.10;99.90;;;;;;4976951;28;20035;-72
2021/04/22 02:38:10;;;;;;;4.18;2.13;;;10.20;99.90;;;;;;4979886;28;20031;-73
2021/04/22 02:40:37;;;;;;;2.85;2.17;;;10.20;99.90;;;;;;4974902;28;20027;-73
2021/04/22 02:43:06;;;;;;;3.70;2.20;;;10.10;99.90;;;;;;4979466;28;20029;-73
2021/04/22 02:45:34;;;;;;;2.20;1.67;;;10.20;99.90;;;;;;4977606;28;20403;-72
2021/04/22 02:48:01;;;;;;;1.85;1.67;;;10.20;99.90;;;;;;4980856;28;20057;-73
2021/04/22 02:50:30;;;;;;;3.22;2.05;;;10.20;99.90;;;;;;4977361;28;20193;-73
2021/04/22 02:52:55;;;;;;;2.40;2.10;;;10.20;99.90;;;;;;4977643;28;20419;-73
2021/04/22 02:55:21;;;;;;;2.50;1.92;;;10.10;99.90;;;;;;4977186;28;20026;-73
2021/04/22 02:57:47;;;;;;;2.35;2.25;;;10.00;99.90;;;;;;4977986;28;20541;-73
2021/04/22 03:00:17;;;;;;;2.28;1.90;;;10.10;99.90;;;;;;4977242;28;20033;-73
2021/04/22 03:02:43;;;;;;;2.17;1.88;;;10.10;99.90;;;;;;4978982;28;20077;-73
2021/04/22 03:05:10;;;;;;;8.10;2.25;;;10.10;99.90;;;;;;4977254;28;20034;-72
2021/04/22 03:07:36;;;;;;;2.28;2.08;;;10.00;99.90;;;;;;4976632;28;20441;-73
2021/04/22 03:10:03;;;;;;;3.38;2.03;;;10.00;99.90;;;;;;4976293;28;20030;-73
2021/04/22 03:12:29;;;;;;;2.20;2.10;;;10.20;99.90;;;;;;4981247;28;20022;-73
2021/04/22 03:14:54;;;;;;;2.70;2.35;;;10.20;99.90;;;;;;4975094;28;20097;-73
2021/04/22 03:17:20;;;;;;;3.63;2.00;;;10.10;99.90;;;;;;4982755;28;20025;-72
2021/04/22 03:19:46;;;;;;;3.55;2.35;;;10.00;99.90;;;;;;4974719;28;20515;-72
2021/04/22 03:22:11;;;;;;;3.08;2.42;;;10.10;99.90;;;;;;4981314;28;20474;-73
2021/04/22 03:24:37;;;;;;;2.50;2.30;;;10.10;99.90;;;;;;4976803;28;20023;-73
2021/04/22 03:27:04;;;;;;;2.10;2.00;;;10.10;99.90;;;;;;4980618;28;20035;-73
2021/04/22 03:29:29;;;;;;;4.30;2.40;;;10.10;99.90;;;;;;4976800;28;20965;-72
2021/04/22 03:31:55;;;;;;;4.00;2.55;;;10.00;99.90;;;;;;4981396;28;20018;-72
2021/04/22 03:34:21;;;;;;;2.47;2.17;;;9.90;99.90;;;;;;4979282;28;20033;-73
2021/04/22 03:36:46;;;;;;;2.28;2.08;;;10.00;99.90;;;;;;4978894;28;20076;-71
2021/04/22 03:39:12;;;;;;;2.78;2.55;;;9.90;99.90;;;;;;4980254;28;20447;-71
2021/04/22 03:41:39;;;;;;;3.25;2.40;;;9.80;99.90;;;;;;4976533;28;20031;-71
2021/04/22 03:44:05;;;;;;;4.63;2.72;;;9.90;99.90;;;;;;4970799;28;20050;-71
2021/04/22 03:46:31;;;;;;;2.90;2.58;;;10.00;99.90;;;;;;4985396;28;20615;-71
2021/04/22 03:48:57;;;;;;;2.75;2.03;;;9.90;99.90;;;;;;4961372;28;20031;-72
2021/04/22 03:51:23;;;;;;;3.33;2.30;;;10.00;99.90;;;;;;4981401;28;20033;-71
2021/04/22 03:53:49;;;;;;;2.97;2.67;;;9.90;99.90;;;;;;4964445;28;20487;-71
2021/04/22 03:56:15;;;;;;;2.42;2.22;;;10.00;99.90;;;;;;4976175;28;20026;-71
2021/04/22 03:58:40;;;;;;;3.28;2.45;;;10.00;99.90;;;;;;4982463;28;20034;-71
2021/04/22 04:01:06;;;;;;;3.35;2.97;;;9.90;99.90;;;;;;4980227;28;20106;-71
2021/04/22 04:03:32;;;;;;;3.83;2.75;;;9.90;99.90;;;;;;4977547;28;20488;-71
2021/04/22 04:05:57;;;;;;;3.53;2.45;;;10.00;99.90;;;;;;4969368;28;20368;-71
2021/04/22 04:08:23;;;;;;;8.63;2.72;;;10.00;99.90;;;;;;4982320;28;20417;-71
2021/04/22 04:10:49;;;;;;;3.10;2.80;;;10.00;99.90;;;;;;4976287;28;20031;-71
2021/04/22 04:13:14;;;;;;;5.90;2.80;;;10.00;99.90;;;;;;4971048;28;20466;-71
2021/04/22 04:15:45;;;;;;;3.83;3.20;;;9.80;99.90;;;;;;4975888;28;20038;-71
2021/04/22 04:18:11;;;;;;;3.67;2.83;;;9.90;99.90;;;;;;4974667;28;20077;-71
2021/04/22 04:20:37;;;;;;;3.30;2.78;;;9.90;99.90;;;;;;4973806;28;20033;-72
2021/04/22 04:23:03;;;;;;;4.38;2.65;;;9.80;99.90;;;;;;4963584;28;20051;-72
2021/04/22 04:25:28;;;;;;;3.47;3.15;;;9.90;99.90;;;;;;4966969;28;20027;-71
2021/04/22 04:27:54;;;;;;;3.53;3.30;;;9.90;99.90;;;;;;4977164;28;20274;-71
2021/04/22 04:30:20;;;;;;;3.35;2.95;;;9.90;99.90;;;;;;4973371;28;20069;-71
2021/04/22 04:32:46;;;;;;;3.70;3.30;;;9.90;99.90;;;;;;4953321;28;20514;-71
2021/04/22 04:35:13;;;;;;;4.45;3.45;;;9.80;99.90;;;;;;4958527;28;20106;-71
2021/04/22 04:37:39;;;;;;;6.32;3.25;;;9.90;99.90;;;;;;4956182;28;20512;-71
2021/04/22 04:40:08;;;;;;;3.95;3.50;;;9.90;99.90;;;;;;4963733;28;20610;-71
2021/04/22 04:42:34;;;;;;;6.60;3.58;;;9.80;99.90;;;;;;4960455;28;20122;-71
2021/04/22 04:45:00;;;;;;;5.07;3.75;;;9.90;99.90;;;;;;4958964;28;20149;-71
2021/04/22 04:47:26;;;;;;;4.78;3.63;;;9.80;99.90;;;;;;4952890;28;20511;-71
2021/04/22 04:49:52;;;;;;;4.15;3.80;;;9.90;99.90;;;;;;4970846;28;20027;-71
2021/04/22 04:52:17;;;;;;;5.65;3.63;;;9.90;99.90;;;;;;4960072;28;20105;-68
2021/04/22 04:54:43;;;;;;;3.88;3.58;;;10.30;99.90;;;;;;4965751;28;20185;-68
2021/04/22 04:57:10;;;;;;;4.47;4.07;;;10.10;99.90;;;;;;4967833;28;20117;-68
2021/04/22 04:59:36;;;;;;;6.30;3.95;;;10.00;99.90;;;;;;4967820;28;20041;-68
2021/04/22 05:02:01;;;;;;;3.72;3.30;;;9.90;99.90;;;;;;4954615;28;20452;-68
2021/04/22 05:04:27;;;;;;;4.15;3.78;;;9.90;99.90;;;;;;4959115;28;20726;-69
2021/04/22 05:06:52;;;;;;;5.55;4.03;;;10.00;99.90;;;;;;4972158;28;20058;-69
2021/04/22 05:09:18;;;;;;;6.50;4.07;;;9.90;99.90;;;;;;4968331;28;20062;-68
2021/04/22 05:11:44;;;;;;;6.75;4.05;;;9.80;99.90;;;;;;4973758;28;20607;-69
2021/04/22 05:14:09;;;;;;;7.40;4.03;;;10.00;99.90;;;;;;4960251;28;20030;-69
2021/04/22 05:16:35;;;;;;;7.65;4.03;;;10.00;99.90;;;;;;4974735;28;20113;-68
2021/04/22 05:19:01;;;;;;;8.23;4.10;;;10.00;99.90;;;;;;4963545;28;20031;-68
2021/04/22 05:21:27;;;;;;;5.97;4.00;;;10.00;99.90;;;;;;4976222;28;20054;-68
2021/04/22 05:23:52;;;;;;;8.10;4.00;;;10.00;99.90;;;;;;4965247;28;20027;-68
2021/04/22 05:26:19;;;;;;;5.00;4.15;;;10.00;99.90;;;;;;4974850;28;20030;-70
2021/04/22 05:28:46;;;;;;;8.30;4.10;;;10.10;99.90;;;;;;4968720;28;20098;-69
2021/04/22 05:31:12;;;;;;;9.70;4.43;;;10.10;99.90;;;;;;4977534;28;20033;-68
2021/04/22 05:33:37;;;;;;;11.45;5.05;;;10.10;99.90;;;;;;4968848;28;20027;-69
2021/04/22 05:36:04;;;;;;;6.00;3.92;;;10.00;99.90;;;;;;4975499;28;20695;-69
2021/04/22 05:38:30;;;;;;;8.52;4.40;;;10.20;99.90;;;;;;4970648;28;20023;-69
2021/04/22 05:40:55;;;;;;;6.22;4.05;;;10.30;99.90;;;;;;4975777;28;20049;-70
2021/04/22 05:43:21;;;;;;;12.13;4.57;;;10.20;99.90;;;;;;4970446;28;20068;-69
2021/04/22 05:45:47;;;;;;;5.30;4.00;;;10.10;99.90;;;;;;4970168;28;20487;-70
2021/04/22 05:48:13;;;;;;;4.93;4.50;;;10.20;99.90;;;;;;4978591;28;20517;-69
2021/04/22 05:50:38;;;;;;;5.05;3.88;;;10.20;99.90;;;;;;4969628;28;20035;-71
2021/04/22 05:53:04;;;;;;;11.43;4.45;;;10.30;99.90;;;;;;4962968;28;20026;-69
2021/04/22 05:55:31;;;;;;;7.35;4.38;;;10.20;99.90;;;;;;4974660;28;20121;-67
2021/04/22 05:57:58;;;;;;;9.13;4.28;;;10.20;99.90;;;;;;4961793;28;20094;-67
2021/04/22 06:00:26;;;;;;;5.47;3.83;;;10.20;99.90;;;;;;4973231;28;20030;-67
2021/04/22 06:02:51;;;;;;;9.30;3.95;;;10.40;99.90;;;;;;4973112;28;20049;-67
2021/04/22 06:05:17;;;;;;;6.28;3.83;;;10.30;99.90;;;;;;4978548;28;20026;-67
2021/04/22 06:07:43;;;;;;;5.28;3.63;;;10.40;99.90;;;;;;4971449;28;20081;-67
2021/04/22 06:10:09;;;;;;;4.47;3.45;;;10.40;99.90;;;;;;4978104;28;20026;-67
2021/04/22 06:12:35;;;;;;;10.10;4.13;;;10.50;99.90;;;;;;4981880;28;20023;-67
2021/04/22 06:15:01;;;;;;;5.70;3.78;;;10.50;99.90;;;;;;4976589;28;20620;-67
2021/04/22 06:17:27;;;;;;;7.40;3.83;;;10.50;99.90;;;;;;4974083;28;20015;-66
2021/04/22 06:19:52;;;;;;;7.65;4.13;;;10.50;99.90;;;;;;4975648;28;20038;-67
2021/04/22 06:22:18;;;;;;;7.50;4.30;;;10.60;99.90;;;;;;4981987;28;20050;-66
2021/04/22 06:24:44;;;;;;;8.40;3.92;;;10.80;99.90;;;;;;4972164;28;20061;-67
2021/04/22 06:27:11;;;;;;;5.60;4.00;;;10.80;99.90;;;;;;4976085;28;20034;-66
2021/04/22 06:29:38;;;;;;;7.43;3.92;;;10.90;99.90;;;;;;4959535;28;20047;-66
2021/04/22 06:32:03;;;;;;;7.65;4.50;;;10.90;99.90;;;;;;4976050;28;20051;-66
2021/04/22 06:34:29;;;;;;;6.50;3.88;;;11.00;99.90;;;;;;4974900;28;20108;-67
2021/04/22 06:36:59;;;;;;;6.57;4.22;;;11.10;99.90;;;;;;4980820;28;20033;-66
2021/04/22 06:39:25;;;;;;;6.43;4.10;;;11.20;99.90;;;;;;4977577;28;20435;-67
2021/04/22 06:41:51;;;;;;;8.60;3.80;;;11.20;99.90;;;;;;4979360;28;20479;-66
2021/04/22 06:44:17;;;;;;;6.32;3.75;;;11.20;99.90;;;;;;4978484;28;20034;-67
2021/04/22 06:46:43;;;;;;;7.53;3.90;;;11.40;99.90;;;;;;4984269;28;20478;-66
2021/04/22 06:49:09;;;;;;;8.52;3.70;;;11.50;99.90;;;;;;4980509;28;20011;-66
2021/04/22 06:51:35;;;;;;;9.25;3.72;;;11.40;99.90;;;;;;4983293;28;20039;-67
2021/04/22 06:54:00;;;;;;;5.60;3.50;;;11.60;99.90;;;;;;4992214;28;20033;-67
2021/04/22 06:56:26;;;;;;;7.63;3.58;;;11.60;99.90;;;;;;4979429;28;20042;-67
2021/04/22 06:58:53;;;;;;;6.32;3.22;;;11.80;99.90;;;;;;4984026;28;20454;-67
2021/04/22 07:01:19;;;;;;;5.95;3.10;;;12.00;99.90;;;;;;4977783;28;20610;-67
2021/04/22 07:03:44;;;;;;;6.43;3.45;;;11.90;99.90;;;;;;4971524;28;20066;-68
2021/04/22 07:06:10;;;;;;;3.83;3.03;;;11.90;99.90;;;;;;4974255;28;20023;-68
2021/04/22 07:08:36;;;;;;;5.35;3.30;;;12.20;99.90;;;;;;4969275;28;20047;-68
2021/04/22 07:11:02;;;;;;;5.75;3.03;;;12.30;99.90;;;;;;4975550;28;20073;-68
2021/04/22 07:13:27;;;;;;;5.30;3.25;;;12.50;99.90;;;;;;4964669;28;20037;-67
2021/04/22 07:15:53;;;;;;;5.50;3.47;;;12.30;99.90;;;;;;4971931;28;20366;-68
2021/04/22 07:18:18;;;;;;;7.53;3.40;;;12.30;99.90;;;;;;4965454;28;20082;-68
2021/04/22 07:20:44;;;;;;;7.40;3.42;;;12.20;99.90;;;;;;4971874;28;20049;-67
2021/04/22 07:23:13;;;;;;;10.20;3.05;;;12.20;99.90;;;;;;4963665;28;20046;-67
2021/04/22 07:25:39;;;;;;;4.82;3.20;;;12.30;99.90;;;;;;4965914;28;20482;-68
2021/04/22 07:28:06;;;;;;;9.77;3.30;;;12.50;99.90;;;;;;4964488;28;20124;-68
2021/04/22 07:30:32;;;;;;;8.82;3.05;;;12.70;99.90;;;;;;4965642;28;20026;-68
2021/04/22 07:32:57;;;;;;;9.25;2.90;;;12.40;99.90;;;;;;4959408;28;20079;-67
2021/04/22 07:35:24;;;;;;;9.32;3.50;;;12.50;99.90;;;;;;4964089;28;20085;-67
2021/04/22 07:37:50;;;;;;;11.57;3.55;;;12.50;99.90;;;;;;4971844;28;20035;-67
2021/04/22 07:40:22;;;;;;;8.32;3.20;;;12.80;99.90;;;;;;4982767;28;20019;-67
2021/04/22 07:42:48;;;;;;;6.72;2.88;;;12.90;99.90;;;;;;4973855;28;20035;-67
2021/04/22 07:45:16;;;;;;;14.77;3.63;;;13.00;99.90;;;;;;4976070;28;20023;-67
2021/04/22 07:47:42;;;;;;;6.10;2.83;;;13.00;99.90;;;;;;4967011;28;20033;-68
2021/04/22 07:50:11;;;;;;;15.77;3.70;;;13.20;99.90;;;;;;4975293;28;20022;-68
2021/04/22 07:52:36;;;;;;;19.52;3.33;;;13.40;99.90;;;;;;4978117;28;20527;-67
2021/04/22 07:55:05;;;;;;;23.92;3.00;;;13.30;99.90;;;;;;4973076;28;20041;-67
2021/04/22 07:57:31;;;;;;;12.30;2.85;;;13.60;99.90;;;;;;4986669;28;20148;-68
2021/04/22 07:59:57;;;;;;;14.23;2.35;;;13.60;99.90;;;;;;4974109;28;20234;-68
2021/04/22 08:02:22;;;;;;;11.98;3.30;;;13.70;99.90;;;;;;4985706;28;20113;-68
2021/04/22 08:04:48;;;;;;;19.10;3.17;;;13.80;99.90;;;;;;4975651;28;20039;-68
2021/04/22 08:07:14;;;;;;;23.45;3.42;;;13.90;99.90;;;;;;4981174;28;20112;-67
2021/04/22 08:09:39;;;;;;;5.97;2.20;;;14.00;99.90;;;;;;4976564;28;20046;-67
2021/04/22 08:12:06;;;;;;;9.48;2.70;;;13.90;99.90;;;;;;4975119;28;20038;-68
2021/04/22 08:14:33;;;;;;;12.30;2.42;;;13.90;99.90;;;;;;4971802;28;20027;-68
2021/04/22 08:17:00;;;;;;;12.10;2.42;;;14.00;99.90;;;;;;4978873;28;20034;-68
2021/04/22 08:19:26;;;;;;;20.10;3.13;;;14.00;99.90;;;;;;4971624;28;20462;-68
2021/04/22 08:21:51;;;;;;;12.75;2.60;;;14.10;99.90;;;;;;4978906;28;20054;-67
2021/04/22 08:24:17;;;;;;;8.50;2.38;;;14.20;99.90;;;;;;4970769;28;20376;-70
2021/04/22 08:26:45;;;;;;;13.07;2.15;;;14.10;99.90;;;;;;4981928;28;20155;-70
2021/04/22 08:29:11;;;;;;;22.38;3.05;;;14.40;99.90;;;;;;4970817;28;20023;-71
2021/04/22 08:31:37;;;;;;;7.07;2.03;;;14.50;99.90;;;;;;4982140;28;20411;-70
2021/04/22 08:34:07;;;;;;;6.97;2.20;;;14.40;99.90;;;;;;4970558;28;20539;-70
2021/04/22 08:36:34;;;;;;;13.63;2.08;;;14.60;99.90;;;;;;4971870;28;20117;-70
2021/04/22 08:39:01;;;;;;;12.45;2.08;;;14.80;99.90;;;;;;4972796;28;20045;-72
2021/04/22 08:41:27;;;;;;;11.77;2.40;;;14.70;99.90;;;;;;4976414;28;20035;-71
2021/04/22 08:43:53;;;;;;;13.15;1.88;;;14.70;99.90;;;;;;4978228;28;20095;-71
2021/04/22 08:46:21;;;;;;;7.55;2.00;;;15.20;99.90;;;;;;4981042;28;20121;-71
2021/04/22 08:48:47;;;;;;;12.32;1.50;;;14.80;99.90;;;;;;4967286;28;20526;-68
2021/04/22 08:51:13;;;;;;;8.77;1.60;;;15.10;99.90;;;;;;4981257;28;20121;-68
2021/04/22 08:53:43;;;;;;;10.45;2.20;;;15.20;99.90;;;;;;4970863;28;20439;-68
2021/04/22 08:56:09;;;;;;;14.75;2.47;;;15.20;99.90;;;;;;4981911;28;20026;-68
2021/04/22 08:58:35;;;;;;;14.35;2.20;;;15.50;99.90;;;;;;4971727;28;20102;-68
2021/04/22 09:01:11;;;;;;;13.95;1.90;;;15.30;99.90;;;;;;4975004;28;20458;-68
2021/04/22 09:03:37;;;;;;;;;;;15.30;99.90;;;;;;4976228;28;20101;-69
2021/04/22 09:06:04;;;;;;;15.95;2.80;;;15.30;99.90;;;;;;4974130;28;19910;-68
2021/04/22 09:08:42;;;;;;;10.73;2.10;;;15.30;99.90;;;;;;4968966;28;20035;-68
2021/04/22 09:11:08;;;;;;;7.07;1.80;;;15.60;99.90;;;;;;4976630;28;20537;-68
2021/04/22 09:13:35;;;;;;;6.78;2.00;;;15.40;99.90;;;;;;4972050;28;20029;-69
2021/04/22 09:16:14;;;;;;;11.75;1.70;;;15.80;99.90;;;;;;4974739;28;20566;-68
2021/04/22 09:18:42;;;;;;;6.05;1.77;;;15.70;99.90;;;;;;4982100;28;20030;-68
2021/04/22 09:21:26;;;;;;;6.32;1.92;;;15.70;99.90;;;;;;4974188;28;20514;-69
2021/04/22 09:23:59;;;;;;;8.10;1.83;;;15.70;99.90;;;;;;4957385;28;20480;-69
2021/04/22 09:26:45;;;;;;;11.68;2.55;;;16.20;99.90;;;;;;4971392;28;20093;-69
2021/04/22 09:29:13;;;;;;;26.20;2.97;;;15.70;99.90;;;;;;4967664;28;20114;-68
2021/04/22 09:31:40;;;;;;;24.38;2.72;;;15.80;99.90;;;;;;4971743;28;20572;-69
2021/04/22 09:34:10;;;;;;;20.83;3.47;;;15.70;99.90;;;;;;4966620;28;20138;-68
2021/04/22 09:36:49;;;;;;;12.00;2.58;;;15.80;99.90;;;;;;4970025;28;20060;-69
2021/04/22 09:39:23;;;;;;;3.53;2.28;;;16.00;99.90;;;;;;4955498;28;20056;-68
2021/04/22 09:41:53;;;;;;;9.07;3.00;;;16.20;99.90;;;;;;4977786;28;20038;-67
2021/04/22 09:44:19;;;;;;;22.35;3.22;;;15.90;99.90;;;;;;4955511;28;20023;-68
2021/04/22 09:46:47;;;;;;;13.55;2.75;;;16.10;99.90;;;;;;4982396;28;20380;-68
2021/04/22 09:49:20;;;;;;;10.20;2.60;;;16.00;99.90;;;;;;4969765;28;20025;-68
2021/04/22 09:51:48;;;;;;;5.90;2.90;;;16.10;99.90;;;;;;4977221;28;20034;-67
2021/04/22 09:54:18;;;;;;;10.05;2.92;;;16.20;99.90;;;;;;4971085;28;20026;-68
2021/04/22 09:56:53;;;;;;;11.77;3.15;;;16.50;99.90;;;;;;4977562;28;20037;-68
2021/04/22 09:59:21;;;;;;;8.85;2.03;;;16.20;99.90;;;;;;4968322;28;20053;-68
2021/04/22 10:02:08;;;;;;;5.45;2.13;;;16.30;99.90;;;;;;4974238;28;20134;-67
2021/04/22 10:04:45;;;;;;;9.13;2.00;;;16.40;99.90;;;;;;4952051;28;20720;-68
2021/04/22 10:07:29;;;;;;;6.85;1.88;;;17.00;99.90;;;;;;4959819;28;20030;-68
2021/04/22 10:09:58;;;;;;;7.95;1.83;;;16.60;99.90;;;;;;4974849;28;20395;-68
2021/04/22 10:12:26;;;;;;;9.45;2.00;;;16.90;99.90;;;;;;4975434;28;20102;-68
2021/04/22 10:14:53;;;;;;;14.05;2.22;;;17.00;99.90;;;;;;4971441;28;20070;-68
2021/04/22 10:17:20;;;;;;;13.93;1.75;;;17.30;99.90;;;;;;4974035;28;20019;-68
2021/04/22 10:20:03;;;;;;;5.30;1.73;;;17.10;99.90;;;;;;4973595;28;20406;-68
2021/04/22 10:22:31;;;;;;;2.15;1.75;;;17.20;99.90;;;;;;4977958;28;20046;-69
2021/04/22 10:24:59;;;;;;;11.48;2.40;;;17.50;99.90;;;;;;4971985;28;20026;-69
2021/04/22 10:27:26;;;;;;;6.03;2.05;;;17.40;99.90;;;;;;4975552;28;20023;-70
2021/04/22 10:29:53;;;;;;;9.40;2.10;;;17.40;99.90;;;;;;4965851;28;20054;-73
2021/04/22 10:32:20;;;;;;;7.68;2.17;;;17.60;99.90;;;;;;4973476;28;20046;-72
2021/04/22 10:34:47;;;;;;;5.93;1.80;;;17.90;99.90;;;;;;4970868;28;20732;-73
2021/04/22 10:37:13;;;;;;;19.75;2.60;;;18.20;99.90;;;;;;4977252;28;20023;-71
2021/04/22 10:39:39;;;;;;;16.88;2.00;;;18.40;99.90;;;;;;4976899;28;20084;-73
2021/04/22 10:42:06;;;;;;;8.73;2.13;;;18.10;99.90;;;;;;4973344;28;20118;-74
2021/04/22 10:44:32;;;;;;;7.90;1.75;;;18.30;99.90;;;;;;4961808;28;20031;-73
2021/04/22 10:47:00;;;;;;;9.45;1.65;;;18.20;99.90;;;;;;4980016;28;20085;-73
2021/04/22 10:49:27;;;;;;;9.18;2.05;;;18.20;99.90;;;;;;4972959;28;20483;-73
2021/04/22 10:51:53;;;;;;;14.02;1.80;;;18.40;99.90;;;;;;4983503;28;20034;-73
2021/04/22 10:54:18;;;;;;;5.78;2.35;;;18.00;99.90;;;;;;4971898;28;20019;-74
2021/04/22 10:56:46;;;;;;;8.05;1.70;;;18.20;99.90;;;;;;4982137;28;20046;-73
2021/04/22 10:59:22;;;;;;;18.02;2.13;;;18.10;99.90;;;;;;4971977;28;20361;-73
2021/04/22 11:01:48;;;;;;;18.08;2.10;;;18.30;99.90;;;;;;4976435;28;20050;-73
2021/04/22 11:04:14;;;;;;;14.65;2.15;;;18.40;99.90;;;;;;4972389;28;20586;-73
2021/04/22 11:06:42;;;;;;;14.20;1.90;;;17.80;99.90;;;;;;4975952;28;20110;-74
2021/04/22 11:09:20;;;;;;;13.38;2.28;;;18.10;99.90;;;;;;4964250;28;20053;-73
2021/04/22 11:11:58;;;;;;;12.75;1.98;;;18.20;99.90;;;;;;4979052;28;20649;-73
2021/04/22 11:14:36;;;;;;;12.18;1.90;;;18.30;99.90;;;;;;4971392;28;20073;-73
2021/04/22 11:17:03;;;;;;;4.10;1.80;;;18.30;99.90;;;;;;4977466;28;20026;-73
2021/04/22 11:19:40;;;;;;;6.40;1.75;;;18.10;99.90;;;;;;4972102;28;20491;-74
2021/04/22 11:22:29;;;;;;;5.03;2.17;;;18.40;99.90;;;;;;4980707;28;20062;-74
2021/04/22 11:24:59;;;;;;;3.70;2.08;;;18.70;99.90;;;;;;4970239;28;20073;-73
2021/04/22 11:27:26;;;;;;;6.10;1.73;;;19.20;99.90;;;;;;4965478;28;20039;-73
2021/04/22 11:29:57;;;;;;;5.97;2.17;;;19.20;99.90;;;;;;4968640;28;20134;-73
2021/04/22 11:32:31;;;;;;;4.88;2.13;;;18.80;99.90;;;;;;4967893;28;20109;-73
2021/04/22 11:35:05;;;;;;;5.50;2.38;;;18.50;99.90;;;;;;4969250;28;20031;-73
2021/04/22 11:37:34;;;;;;;8.50;2.30;;;19.10;99.90;;;;;;4967121;28;20074;-73
2021/04/22 11:40:18;;;;;;;7.70;2.00;;;18.90;99.90;;;;;;4971446;28;20019;-74
2021/04/22 11:42:46;;;;;;;7.95;2.15;;;19.10;99.90;;;;;;4966524;28;20050;-74
2021/04/22 11:45:20;;;;;;;7.72;2.30;;;19.50;99.90;;;;;;4969815;28;20469;-73
2021/04/22 11:47:56;;;;;;;6.82;2.05;;;20.00;99.90;;;;;;4964407;28;20443;-73
2021/04/22 11:50:24;;;;;;;;;;;19.80;99.90;;;;;;4965302;28;20578;-72
2021/04/22 11:52:54;;;;;;;12.90;2.45;;;19.50;99.90;;;;;;4967911;28;19941;-73
2021/04/22 11:55:31;;;;;;;7.18;2.03;;;19.70;99.90;;;;;;4974071;28;20711;-73
2021/04/22 11:57:59;;;;;;;8.55;2.60;;;20.10;99.90;;;;;;4968276;28;20444;-73
2021/04/22 12:00:48;;;;;;;6.45;2.45;;;19.70;99.90;;;;;;4973537;28;20101;-74
2021/04/22 12:03:36;;;;;;;9.65;2.13;;;19.50;99.90;;;;;;4968866;28;20479;-75
2021/04/22 12:06:08;;;;;;;5.43;1.95;;;19.60;99.90;;;;;;4971649;28;20521;-74
2021/04/22 12:08:37;;;;;;;11.70;2.35;;;19.10;99.90;;;;;;4968765;28;20089;-74
2021/04/22 12:11:05;;;;;;;11.07;2.13;;;19.60;99.90;;;;;;4969859;28;20093;-74
2021/04/22 12:13:33;;;;;;;11.43;2.85;;;19.40;99.90;;;;;;4966912;28;20034;-74
2021/04/22 12:16:01;;;;;;;5.95;1.80;;;19.20;99.90;;;;;;4967455;28;20023;-74
2021/04/22 12:18:27;;;;;;;4.93;1.50;;;19.80;99.90;;;;;;4964719;28;20058;-74
2021/04/22 12:21:05;;;;;;;7.57;1.92;;;20.50;99.90;;;;;;4966784;28;20395;-73
2021/04/22 12:23:33;;;;;;;10.27;2.10;;;20.70;99.90;;;;;;4966463;28;20159;-73
2021/04/22 12:26:33;;;;;;;9.23;2.20;;;20.10;99.90;;;;;;4970133;28;20514;-74
2021/04/22 12:29:07;;;;;;;3.88;2.05;;;20.50;99.90;;;;;;4933076;28;20492;-74
2021/04/22 12:31:33;;;;;;;2.80;1.70;;;19.90;99.90;;;;;;4992563;28;20034;-74
2021/04/22 12:34:18;;;;;;;5.10;1.52;;;20.10;99.90;;;;;;4964838;28;20081;-74
2021/04/22 12:36:52;;;;;;;10.90;2.03;;;20.30;99.90;;;;;;4972454;28;20135;-73
2021/04/22 12:39:29;;;;;;;7.45;1.77;;;20.30;99.90;;;;;;4965126;28;20041;-74
2021/04/22 12:42:05;;;;;;;4.65;1.70;;;21.00;99.60;;;;;;4969843;28;20414;-74
2021/04/22 12:44:32;;;;;;;4.82;2.10;;;20.90;98.90;;;;;;4967311;28;20038;-74
2021/04/22 12:47:05;;;;;;;1.85;1.42;;;20.20;99.90;;;;;;4973182;28;20038;-74
2021/04/22 12:49:32;;;;;;;3.78;2.03;;;21.00;99.90;;;;;;4961474;28;20441;-75